Troitsko-Pechorsk, Russia
Current Conditions -  °F | °C
As of 6:30 PM on Thursday 25 Dec 2014 (Local Time) from UUYY Reporting Station
Light Snow Light Snow  
Wind Chill: 16°   Ceiling: 900
Heat Index: 16°   Visibility: 2.8mi
Dew Point: 12°   Wind: 2mph
Humidity: 86%   Direction: NA
Pressure: 29.26"   Gusts: NA
Location:  62.7°N, 56.2°E
Report Text: UUYY 251530Z VRB01MPS 4600 -SN BKN009 OVC066 M09/M11 Q0991 TEMPO 0500 +SHSN BKN007CB 19490337 RMK QFE735/0980
Loading
Personal Weather Stations






























Interactive Weather Map New forecast layout! Learn more

10-Day Weather Forecast

Advertisements
Track Severe Weather on mobile